METAR
METAR

METAR

METAR EPSY 141430Z 29016G27KT 230V320 CAVOK 15/M06 Q1011=
TAF EPSY 141430Z 1415/1424 29010KT CAVOK PROB40 TEMPO 1415/1418 29015G25KT=
Ostrzeżenia
Ostrzeżenia

Ostrzeżenia

OSTRZEZENIE LOTNISKOWE DLA LOTNISKA SZYMANY WAZNOSC OD: 12:00 14-04-2024 UTC DO: 17:00 14-04-2024 UTC ZJAWISKO: SILNY WIATR, PORYWY WIATRU, WIATR PROSTOPADLY DO OSI DROGI STARTOWEJ. PRZEBIEG: W REJONIE LOTNISKA EPSY W DALSZYM CIAGU WYSTEPOWAC BEDZIE SILNY WIATR O SREDNIEJ PREDKOSCI 10-20KT I OKRESOWYCH PORYWACH DO 20-30KT Z PRZEWAZAJACEGO KIERUNKU 270-300 ST. OPRACOWAL: T.WAKSZYNSKI DNIA 14-04-2024 11:20 UTC NR OSTRZEZENIA: 168/2024.